Time;durP1;ratioP1;P1;durP2;ratioP2;P2;SDS_P1;SDS_P2;PMS_P1;PMS_P2;Temp;Humidity;BMP_temperature;BMP_pressure;BME280_temperature;BME280_humidity;BME280_pressure;Samples;Min_cycle;Max_cycle;Signal;HPM_P1;HPM_P2
2021/03/06 00:01:38;;;;;;;11.95;5.10;;;-3.80;99.90;;;;;;4185401;28;20629;-50
2021/03/06 00:03:40;;;;;;;13.93;5.90;;;-3.90;99.90;;;;;;4186268;28;20223;-53
2021/03/06 00:05:41;;;;;;;14.85;5.60;;;-3.90;99.90;;;;;;4185066;28;20580;-51
2021/03/06 00:07:42;;;;;;;14.75;5.72;;;-3.90;99.90;;;;;;4185196;28;20221;-53
2021/03/06 00:09:43;;;;;;;14.57;5.82;;;-4.00;99.90;;;;;;4185043;28;20217;-53
2021/03/06 00:11:46;;;;;;;12.07;5.57;;;-4.00;99.90;;;;;;4184780;28;20213;-50
2021/03/06 00:13:47;;;;;;;14.18;6.28;;;-4.00;99.90;;;;;;4184494;28;20207;-50
2021/03/06 00:15:48;;;;;;;16.38;6.45;;;-4.10;99.90;;;;;;4185872;28;20213;-52
2021/03/06 00:17:50;;;;;;;16.80;6.93;;;-4.10;99.90;;;;;;4186884;28;20218;-52
2021/03/06 00:19:51;;;;;;;17.20;6.68;;;-4.10;99.90;;;;;;4185387;28;22109;-52
2021/03/06 00:21:53;;;;;;;16.98;7.18;;;-4.10;99.90;;;;;;4184288;28;20218;-53
2021/03/06 00:23:54;;;;;;;17.30;6.85;;;-4.10;99.90;;;;;;4184060;28;20248;-53
2021/03/06 00:25:55;;;;;;;16.15;6.68;;;-4.10;99.90;;;;;;4184523;28;20339;-52
2021/03/06 00:27:58;;;;;;;13.63;6.03;;;-4.10;99.90;;;;;;4184138;28;20214;-53
2021/03/06 00:29:59;;;;;;;15.98;6.50;;;-4.10;99.90;;;;;;4185326;28;20225;-53
2021/03/06 00:32:00;;;;;;;15.52;6.15;;;-4.10;99.90;;;;;;4184270;28;20219;-53
2021/03/06 00:34:02;;;;;;;14.10;7.03;;;-4.10;99.90;;;;;;4184227;28;20221;-53
2021/03/06 00:36:04;;;;;;;24.98;7.70;;;-4.10;99.90;;;;;;4185134;28;20271;-52
2021/03/06 00:38:05;;;;;;;15.98;6.43;;;-4.20;99.90;;;;;;4184391;28;20214;-52
2021/03/06 00:40:09;;;;;;;13.77;5.93;;;-4.20;99.90;;;;;;4184228;28;20687;-52
2021/03/06 00:42:10;;;;;;;17.02;6.78;;;-4.30;99.90;;;;;;4184473;28;20205;-52
2021/03/06 00:44:12;;;;;;;19.23;6.82;;;-4.30;99.90;;;;;;4183714;28;20296;-53
2021/03/06 00:46:14;;;;;;;17.65;6.85;;;-4.30;99.90;;;;;;4183928;28;20210;-53
2021/03/06 00:48:16;;;;;;;18.58;6.68;;;-4.30;99.90;;;;;;4183762;28;20306;-52
2021/03/06 00:50:24;;;;;;;19.02;6.80;;;-4.30;99.90;;;;;;4184058;28;20233;-53
2021/03/06 00:52:25;;;;;;;14.10;6.00;;;-4.30;99.90;;;;;;4184821;28;20258;-52
2021/03/06 00:54:27;;;;;;;14.63;6.07;;;-4.30;99.90;;;;;;4183836;28;20213;-52
2021/03/06 00:56:28;;;;;;;15.05;5.95;;;-4.40;99.90;;;;;;4184722;28;20225;-52
2021/03/06 00:58:29;;;;;;;16.88;6.53;;;-4.40;99.90;;;;;;4185119;28;20680;-52
2021/03/06 01:00:31;;;;;;;15.43;6.20;;;-4.50;99.90;;;;;;4184077;28;20339;-51
2021/03/06 01:02:33;;;;;;;14.68;5.38;;;-4.50;99.90;;;;;;4184119;28;20252;-51
2021/03/06 01:04:34;;;;;;;16.52;6.28;;;-4.50;99.90;;;;;;4184226;28;20233;-51
2021/03/06 01:06:36;;;;;;;12.45;5.00;;;-4.50;99.90;;;;;;4164293;28;594316;-53
2021/03/06 01:08:37;;;;;;;13.48;5.53;;;-4.50;99.90;;;;;;4184272;28;20227;-51
2021/03/06 01:10:40;;;;;;;13.55;5.72;;;-4.50;99.90;;;;;;4184951;28;20213;-53
2021/03/06 01:12:41;;;;;;;15.00;5.70;;;-4.50;99.90;;;;;;4186127;28;20217;-52
2021/03/06 01:14:43;;;;;;;15.05;5.28;;;-4.50;99.90;;;;;;4184636;28;20225;-51
2021/03/06 01:16:45;;;;;;;14.60;5.30;;;-4.60;99.90;;;;;;4184291;28;20217;-51
2021/03/06 01:18:46;;;;;;;13.50;5.97;;;-4.60;99.90;;;;;;4184357;28;20221;-51
2021/03/06 01:20:48;;;;;;;10.82;5.32;;;-4.60;99.90;;;;;;4185332;28;20247;-51
2021/03/06 01:22:50;;;;;;;13.30;5.45;;;-4.60;99.90;;;;;;4184781;28;20210;-51
2021/03/06 01:24:51;;;;;;;14.60;4.80;;;-4.60;99.90;;;;;;4184454;28;20213;-51
2021/03/06 01:26:52;;;;;;;12.57;5.80;;;-4.60;99.90;;;;;;4184370;28;20332;-51
2021/03/06 01:28:54;;;;;;;14.07;5.85;;;-4.60;99.90;;;;;;4184268;28;20209;-51
2021/03/06 01:30:55;;;;;;;15.27;5.85;;;-4.70;99.90;;;;;;4184774;28;20707;-53
2021/03/06 01:32:57;;;;;;;13.52;5.18;;;-4.70;99.90;;;;;;4184865;28;20230;-51
2021/03/06 01:34:58;;;;;;;9.13;5.13;;;-4.70;99.90;;;;;;4185148;28;20236;-52
2021/03/06 01:37:00;;;;;;;15.02;6.10;;;-4.70;99.90;;;;;;4185289;28;20242;-51
2021/03/06 01:39:01;;;;;;;17.33;6.30;;;-4.70;99.90;;;;;;4184143;28;20214;-51
2021/03/06 01:41:03;;;;;;;20.80;6.00;;;-4.70;99.90;;;;;;4185307;28;20210;-51
2021/03/06 01:43:06;;;;;;;14.23;5.72;;;-4.70;99.90;;;;;;4184790;28;20213;-52
2021/03/06 01:45:09;;;;;;;13.70;5.72;;;-4.70;99.90;;;;;;4184775;28;20210;-52
2021/03/06 01:47:10;;;;;;;19.10;5.70;;;-4.70;99.90;;;;;;4184465;28;20217;-51
2021/03/06 01:49:13;;;;;;;13.90;5.32;;;-4.70;99.90;;;;;;4183966;28;20214;-52
2021/03/06 01:51:14;;;;;;;15.70;5.90;;;-4.70;99.90;;;;;;4184503;28;20214;-52
2021/03/06 01:53:15;;;;;;;15.60;6.35;;;-4.70;99.90;;;;;;4185018;28;20206;-51
2021/03/06 01:55:21;;;;;;;13.82;5.55;;;-4.70;99.90;;;;;;4184094;28;20222;-51
2021/03/06 01:57:23;;;;;;;14.63;5.72;;;-4.70;99.90;;;;;;4184780;28;20761;-51
2021/03/06 01:59:24;;;;;;;12.77;5.82;;;-4.80;99.90;;;;;;4184265;28;20210;-51
2021/03/06 02:01:26;;;;;;;14.90;5.90;;;-4.80;99.90;;;;;;4184126;28;20721;-51
2021/03/06 02:03:27;;;;;;;15.10;5.55;;;-4.80;99.90;;;;;;4183593;28;20249;-51
2021/03/06 02:05:30;;;;;;;15.77;5.78;;;-4.80;99.90;;;;;;4184325;28;20373;-51
2021/03/06 02:07:31;;;;;;;14.40;5.63;;;-4.80;99.90;;;;;;4183399;28;20215;-52
2021/03/06 02:09:32;;;;;;;13.63;5.38;;;-4.90;99.90;;;;;;4183816;28;20218;-51
2021/03/06 02:11:43;;;;;;;12.73;5.13;;;-4.90;99.90;;;;;;4183508;28;20268;-51
2021/03/06 02:13:54;;;;;;;13.23;5.32;;;-4.90;99.90;;;;;;4183865;28;21129;-52
2021/03/06 02:16:12;;;;;;;15.40;5.07;;;-4.90;99.90;;;;;;4184407;28;20295;-52
2021/03/06 02:18:18;;;;;;;11.75;5.57;;;-4.90;99.90;;;;;;4184186;28;20864;-51
2021/03/06 02:20:44;;;;;;;15.18;6.30;;;-5.00;99.90;;;;;;4183475;28;20214;-51
2021/03/06 02:23:15;;;;;;;15.95;4.63;;;-5.00;99.90;;;;;;4178725;28;20211;-51
2021/03/06 02:25:39;;;;;;;14.63;5.88;;;-5.00;99.90;;;;;;4184228;28;20221;-51
2021/03/06 02:27:56;;;;;;;13.30;5.38;;;-5.00;99.90;;;;;;4183781;28;20209;-51
2021/03/06 02:30:02;;;;;;;12.70;5.45;;;-5.00;99.90;;;;;;4183524;28;20233;-51
2021/03/06 02:32:09;;;;;;;14.13;5.70;;;-5.00;99.90;;;;;;4183447;28;20211;-51
2021/03/06 02:34:15;;;;;;;12.75;5.10;;;-5.00;99.90;;;;;;4183057;28;20244;-51
2021/03/06 02:36:22;;;;;;;15.45;5.95;;;-5.00;99.90;;;;;;4182764;28;20209;-53
2021/03/06 02:38:28;;;;;;;17.10;5.45;;;-5.10;99.90;;;;;;4183613;28;20288;-51
2021/03/06 02:40:31;;;;;;;13.27;5.78;;;-5.10;99.90;;;;;;4182834;28;20229;-51
2021/03/06 02:42:33;;;;;;;14.15;4.93;;;-5.10;99.90;;;;;;4184038;28;20206;-51
2021/03/06 02:44:36;;;;;;;14.13;5.82;;;-5.10;99.90;;;;;;4183890;28;20309;-51
2021/03/06 02:46:39;;;;;;;14.65;5.65;;;-5.10;99.90;;;;;;4183930;28;20221;-51
2021/03/06 02:48:40;;;;;;;9.18;4.80;;;-5.10;99.90;;;;;;4184258;28;20217;-51
2021/03/06 02:50:42;;;;;;;13.55;5.90;;;-5.10;99.90;;;;;;4183526;28;20219;-51
2021/03/06 02:52:43;;;;;;;15.43;5.45;;;-5.20;99.90;;;;;;4183937;28;20557;-51
2021/03/06 02:54:45;;;;;;;12.65;5.38;;;-5.20;99.90;;;;;;4184428;28;20205;-51
2021/03/06 02:56:47;;;;;;;13.18;5.10;;;-5.20;99.90;;;;;;4183215;28;20275;-51
2021/03/06 02:59:03;;;;;;;13.60;5.47;;;-5.30;99.90;;;;;;4184228;28;20214;-50
2021/03/06 03:01:07;;;;;;;14.18;5.68;;;-5.30;99.90;;;;;;4183642;28;20637;-53
2021/03/06 03:03:18;;;;;;;12.43;4.63;;;-5.30;99.90;;;;;;4183953;28;20206;-51
2021/03/06 03:05:28;;;;;;;13.90;5.22;;;-5.30;99.90;;;;;;4183893;28;20217;-54
2021/03/06 03:07:36;;;;;;;14.15;5.38;;;-5.40;99.90;;;;;;4183263;28;20236;-54
2021/03/06 03:09:42;;;;;;;12.70;5.30;;;-5.40;99.90;;;;;;4183978;28;20212;-53
2021/03/06 03:11:50;;;;;;;12.13;5.47;;;-5.40;99.90;;;;;;4183962;28;20734;-54
2021/03/06 03:13:54;;;;;;;11.05;4.78;;;-5.40;99.90;;;;;;4183773;28;20197;-51
2021/03/06 03:16:02;;;;;;;10.77;5.07;;;-5.40;99.90;;;;;;4184514;28;20903;-53
2021/03/06 03:18:06;;;;;;;11.32;4.80;;;-5.40;99.90;;;;;;4183499;28;20209;-53
2021/03/06 03:20:15;;;;;;;13.27;5.93;;;-5.40;99.90;;;;;;4183072;28;20225;-53
2021/03/06 03:22:19;;;;;;;11.13;5.35;;;-5.40;99.90;;;;;;4183632;28;20229;-53
2021/03/06 03:24:22;;;;;;;13.32;5.80;;;-5.40;99.90;;;;;;4183279;28;20234;-51
2021/03/06 03:26:26;;;;;;;16.73;6.00;;;-5.40;99.90;;;;;;4182351;28;20218;-53
2021/03/06 03:28:29;;;;;;;15.35;5.38;;;-5.40;99.90;;;;;;4182621;28;20284;-53
2021/03/06 03:30:30;;;;;;;12.63;5.38;;;-5.40;99.90;;;;;;4183297;28;20580;-51
2021/03/06 03:32:32;;;;;;;19.65;5.05;;;-5.40;99.90;;;;;;4183461;28;20224;-54
2021/03/06 03:34:35;;;;;;;12.65;4.60;;;-5.40;99.90;;;;;;4183377;28;20206;-53
2021/03/06 03:36:39;;;;;;;13.02;4.80;;;-5.50;99.90;;;;;;4183559;28;20240;-54
2021/03/06 03:38:43;;;;;;;10.70;5.00;;;-5.50;99.90;;;;;;4183339;28;20205;-53
2021/03/06 03:40:46;;;;;;;13.38;5.05;;;-5.50;99.90;;;;;;4183440;28;20218;-53
2021/03/06 03:42:49;;;;;;;19.60;5.40;;;-5.60;99.90;;;;;;4183837;28;22113;-53
2021/03/06 03:44:50;;;;;;;14.15;6.00;;;-5.60;99.90;;;;;;4183511;28;20232;-53
2021/03/06 03:46:52;;;;;;;12.88;5.10;;;-5.60;99.90;;;;;;4183185;28;20214;-53
2021/03/06 03:48:55;;;;;;;15.60;5.25;;;-5.60;99.90;;;;;;4185845;28;20218;-53
2021/03/06 03:50:56;;;;;;;12.60;5.68;;;-5.60;99.90;;;;;;4186491;28;20209;-55
2021/03/06 03:52:59;;;;;;;13.45;5.65;;;-5.70;99.90;;;;;;4186390;28;20275;-55
2021/03/06 03:55:01;;;;;;;13.07;5.45;;;-5.70;99.90;;;;;;4185396;28;20210;-53
2021/03/06 03:57:03;;;;;;;12.02;5.53;;;-5.70;99.90;;;;;;4186944;28;20959;-53
2021/03/06 03:59:05;;;;;;;13.23;5.40;;;-5.70;99.90;;;;;;4186566;28;20658;-55
2021/03/06 04:01:07;;;;;;;11.48;5.03;;;-5.60;99.90;;;;;;4186060;28;20229;-53
2021/03/06 04:03:10;;;;;;;15.82;5.60;;;-5.60;99.90;;;;;;4185445;28;20241;-54
2021/03/06 04:05:12;;;;;;;11.40;5.15;;;-5.60;99.90;;;;;;4184439;28;20215;-53
2021/03/06 04:07:14;;;;;;;10.57;5.03;;;-5.70;99.90;;;;;;4185826;28;20202;-54
2021/03/06 04:09:16;;;;;;;10.70;4.60;;;-5.70;99.90;;;;;;4185153;28;20247;-54
2021/03/06 04:11:17;;;;;;;9.52;4.43;;;-5.70;99.90;;;;;;4185895;28;20232;-53
2021/03/06 04:13:18;;;;;;;11.23;5.22;;;-5.80;99.90;;;;;;4185497;28;20213;-53
2021/03/06 04:15:21;;;;;;;12.02;4.82;;;-5.80;99.90;;;;;;4186263;28;20233;-53
2021/03/06 04:17:22;;;;;;;13.23;5.22;;;-5.80;99.90;;;;;;4185676;28;20237;-53
2021/03/06 04:19:23;;;;;;;10.82;4.65;;;-5.90;99.90;;;;;;4187032;28;20225;-53
2021/03/06 04:21:25;;;;;;;14.48;4.68;;;-5.90;99.90;;;;;;4185821;28;20290;-53
2021/03/06 04:23:26;;;;;;;11.18;4.78;;;-5.90;99.90;;;;;;4184814;28;20238;-54
2021/03/06 04:25:28;;;;;;;15.57;5.07;;;-6.00;99.90;;;;;;4186031;28;20218;-54
2021/03/06 04:27:30;;;;;;;11.95;4.93;;;-6.00;99.90;;;;;;4187492;28;20226;-54
2021/03/06 04:29:31;;;;;;;10.50;4.65;;;-6.00;99.90;;;;;;4186567;28;20636;-53
2021/03/06 04:31:32;;;;;;;15.73;5.78;;;-6.00;99.90;;;;;;4185083;28;20213;-53
2021/03/06 04:33:34;;;;;;;14.32;5.78;;;-6.00;99.90;;;;;;4184614;28;20730;-54
2021/03/06 04:35:35;;;;;;;14.40;6.00;;;-6.00;99.90;;;;;;4185747;28;20220;-54
2021/03/06 04:37:37;;;;;;;12.77;5.13;;;-6.00;99.90;;;;;;4185319;28;20313;-51
2021/03/06 04:39:38;;;;;;;17.88;5.70;;;-6.00;99.90;;;;;;4184509;28;20245;-53
2021/03/06 04:41:40;;;;;;;12.23;5.32;;;-6.00;99.90;;;;;;4184548;28;20264;-54
2021/03/06 04:43:42;;;;;;;11.40;4.82;;;-6.00;99.90;;;;;;4184788;28;20573;-53
2021/03/06 04:45:43;;;;;;;12.50;4.65;;;-6.00;99.90;;;;;;4184896;28;20218;-56
2021/03/06 04:47:45;;;;;;;13.52;4.78;;;-6.00;99.90;;;;;;4186286;28;20220;-54
2021/03/06 04:49:46;;;;;;;13.80;5.85;;;-6.00;99.90;;;;;;4188318;28;20282;-53
2021/03/06 04:51:48;;;;;;;11.55;4.43;;;-6.00;99.90;;;;;;4184109;28;20220;-55
2021/03/06 04:53:49;;;;;;;12.45;5.35;;;-6.00;99.90;;;;;;4184323;28;20229;-54
2021/03/06 04:55:51;;;;;;;11.15;5.18;;;-6.00;99.90;;;;;;4183796;28;20243;-53
2021/03/06 04:57:53;;;;;;;15.70;5.65;;;-6.00;99.90;;;;;;4186813;28;20645;-53
2021/03/06 04:59:54;;;;;;;12.65;5.00;;;-6.00;99.90;;;;;;4184648;28;20633;-53
2021/03/06 05:01:56;;;;;;;12.05;5.13;;;-6.00;99.90;;;;;;4184374;28;20240;-53
2021/03/06 05:03:57;;;;;;;16.15;5.53;;;-6.00;99.90;;;;;;4185510;28;20303;-54
2021/03/06 05:05:58;;;;;;;12.05;4.82;;;-6.00;99.90;;;;;;4184737;28;20246;-53
2021/03/06 05:08:00;;;;;;;12.25;4.75;;;-6.00;99.90;;;;;;4185025;28;20217;-53
2021/03/06 05:10:02;;;;;;;14.57;5.93;;;-6.10;99.90;;;;;;4186006;28;20222;-53
2021/03/06 05:12:04;;;;;;;10.98;4.90;;;-6.10;99.90;;;;;;4186843;28;20244;-54
2021/03/06 05:14:06;;;;;;;11.82;4.80;;;-6.10;99.90;;;;;;4187047;28;20202;-53
2021/03/06 05:16:07;;;;;;;13.88;5.43;;;-6.00;99.90;;;;;;4186858;28;20210;-53
2021/03/06 05:18:09;;;;;;;10.88;4.07;;;-6.10;99.90;;;;;;4186076;28;22059;-55
2021/03/06 05:20:11;;;;;;;13.23;4.70;;;-6.10;99.90;;;;;;4186895;28;20229;-54
2021/03/06 05:22:13;;;;;;;12.35;4.63;;;-6.10;99.90;;;;;;4185715;28;20652;-53
2021/03/06 05:24:14;;;;;;;12.43;4.38;;;-6.10;99.90;;;;;;4186289;28;20264;-54
2021/03/06 05:26:18;;;;;;;11.20;4.28;;;-6.10;99.90;;;;;;4185732;28;20226;-54
2021/03/06 05:28:19;;;;;;;10.40;4.72;;;-6.10;99.90;;;;;;4185078;28;20216;-54
2021/03/06 05:30:23;;;;;;;11.18;4.30;;;-6.20;99.90;;;;;;4186175;28;20214;-55
2021/03/06 05:32:24;;;;;;;16.10;5.10;;;-6.20;99.90;;;;;;4186952;28;20744;-53
2021/03/06 05:34:25;;;;;;;10.07;4.78;;;-6.20;99.90;;;;;;4185217;28;20206;-53
2021/03/06 05:36:27;;;;;;;10.88;4.28;;;-6.20;99.90;;;;;;4185647;28;20654;-53
2021/03/06 05:38:28;;;;;;;12.60;4.50;;;-6.20;99.90;;;;;;4183463;28;22117;-56
2021/03/06 05:40:31;;;;;;;12.80;4.95;;;-6.20;99.90;;;;;;4185165;28;20218;-55
2021/03/06 05:42:36;;;;;;;12.30;5.00;;;-6.20;99.90;;;;;;4185402;28;20641;-53
2021/03/06 05:44:38;;;;;;;10.55;4.70;;;-6.20;99.90;;;;;;4184246;28;20964;-53
2021/03/06 05:46:41;;;;;;;11.30;5.10;;;-6.30;99.90;;;;;;4184371;28;20221;-53
2021/03/06 05:48:42;;;;;;;11.27;4.68;;;-6.20;99.90;;;;;;4183598;28;20237;-54
2021/03/06 05:50:45;;;;;;;13.15;4.90;;;-6.20;99.90;;;;;;4184591;28;20226;-53
2021/03/06 05:52:47;;;;;;;9.07;4.30;;;-6.30;99.90;;;;;;4185344;28;20294;-53
2021/03/06 05:54:50;;;;;;;10.82;4.93;;;-6.30;99.90;;;;;;4184268;28;20210;-53
2021/03/06 05:56:52;;;;;;;10.40;4.70;;;-6.30;99.90;;;;;;4184501;28;20213;-54
2021/03/06 05:58:55;;;;;;;14.13;4.80;;;-6.30;99.90;;;;;;4184672;28;20226;-52
2021/03/06 06:00:56;;;;;;;10.77;4.55;;;-6.30;99.90;;;;;;4184373;28;22188;-53
2021/03/06 06:02:59;;;;;;;9.70;4.35;;;-6.30;99.90;;;;;;4184770;28;20637;-53
2021/03/06 06:05:01;;;;;;;13.77;4.63;;;-6.30;99.90;;;;;;4184480;28;20235;-52
2021/03/06 06:07:03;;;;;;;11.80;4.38;;;-6.30;99.90;;;;;;4183842;28;20210;-51
2021/03/06 06:09:07;;;;;;;13.13;4.82;;;-6.30;99.90;;;;;;4183366;28;20229;-52
2021/03/06 06:11:09;;;;;;;14.18;4.82;;;-6.30;99.90;;;;;;4183583;28;20701;-51
2021/03/06 06:13:12;;;;;;;9.27;4.50;;;-6.30;99.90;;;;;;4184583;28;20209;-52
2021/03/06 06:15:14;;;;;;;12.90;4.90;;;-6.30;99.90;;;;;;4184097;28;20211;-52
2021/03/06 06:17:16;;;;;;;11.73;4.97;;;-6.20;99.90;;;;;;4184008;28;20221;-55
2021/03/06 06:19:18;;;;;;;11.48;4.43;;;-6.20;99.90;;;;;;4183698;28;20224;-52
2021/03/06 06:21:42;;;;;;;12.32;4.90;;;-6.20;99.90;;;;;;4183747;28;20214;-52
2021/03/06 06:24:03;;;;;;;14.45;4.47;;;-6.20;99.90;;;;;;4183937;28;20295;-52
2021/03/06 06:26:11;;;;;;;11.40;4.82;;;-6.20;99.90;;;;;;4184481;28;20210;-53
2021/03/06 06:28:13;;;;;;;10.90;4.85;;;-6.20;99.90;;;;;;4183345;28;20640;-52
2021/03/06 06:30:15;;;;;;;14.52;4.68;;;-6.20;99.90;;;;;;4184063;28;20205;-52
2021/03/06 06:32:19;;;;;;;10.80;5.03;;;-6.20;99.90;;;;;;4183100;28;20218;-52
2021/03/06 06:34:21;;;;;;;14.70;5.15;;;-6.20;99.90;;;;;;4183195;28;20215;-52
2021/03/06 06:36:38;;;;;;;11.85;5.38;;;-6.20;99.90;;;;;;4183942;28;20209;-52
2021/03/06 06:38:43;;;;;;;12.07;4.90;;;-6.20;99.90;;;;;;4182870;28;20225;-52
2021/03/06 06:40:55;;;;;;;12.55;4.85;;;-6.10;99.90;;;;;;4184049;28;20210;-52
2021/03/06 06:42:56;;;;;;;10.40;4.75;;;-6.10;99.90;;;;;;4183594;28;20225;-52
2021/03/06 06:44:59;;;;;;;15.73;5.63;;;-6.10;99.90;;;;;;4182915;28;20233;-52
2021/03/06 06:47:10;;;;;;;11.32;5.05;;;-6.00;99.90;;;;;;4183815;28;20209;-52
2021/03/06 06:49:12;;;;;;;9.85;4.50;;;-6.00;99.90;;;;;;4183580;28;20214;-52
2021/03/06 06:51:14;;;;;;;13.82;5.60;;;-5.90;99.90;;;;;;4184282;28;20214;-52
2021/03/06 06:53:26;;;;;;;11.48;4.47;;;-5.90;99.90;;;;;;4183971;28;20214;-52
2021/03/06 06:55:35;;;;;;;10.02;4.10;;;-5.80;99.90;;;;;;4183173;28;20209;-52
2021/03/06 06:57:47;;;;;;;11.35;5.13;;;-5.70;99.90;;;;;;4182849;28;20216;-52
2021/03/06 06:59:56;;;;;;;15.18;5.03;;;-5.60;99.90;;;;;;4183142;28;20228;-52
2021/03/06 07:01:58;;;;;;;10.88;5.30;;;-5.40;99.90;;;;;;4184401;28;20909;-52
2021/03/06 07:04:01;;;;;;;15.10;5.50;;;-5.30;99.90;;;;;;4182821;28;20226;-52
2021/03/06 07:06:14;;;;;;;11.30;5.80;;;-5.20;99.90;;;;;;4182646;28;20238;-52
2021/03/06 07:08:22;;;;;;;13.38;5.30;;;-5.00;99.90;;;;;;4183368;28;20228;-52
2021/03/06 07:10:25;;;;;;;16.92;5.22;;;-4.90;99.90;;;;;;4184044;28;20206;-52
2021/03/06 07:12:28;;;;;;;11.65;5.20;;;-4.80;99.90;;;;;;4183412;28;20218;-52
2021/03/06 07:14:36;;;;;;;11.60;5.15;;;-4.60;99.90;;;;;;4183695;28;20225;-52
2021/03/06 07:16:57;;;;;;;15.88;4.80;;;-4.50;99.90;;;;;;4184504;28;20255;-52
2021/03/06 07:19:00;;;;;;;13.43;5.07;;;-4.40;99.90;;;;;;4182981;28;20220;-52
2021/03/06 07:21:01;;;;;;;12.60;5.10;;;-4.20;99.90;;;;;;4183693;28;20214;-52
2021/03/06 07:23:17;;;;;;;10.30;4.93;;;-4.20;99.90;;;;;;4185430;28;20218;-53
2021/03/06 07:25:19;;;;;;;8.70;4.55;;;-3.90;99.90;;;;;;4187130;28;20241;-53
2021/03/06 07:27:21;;;;;;;11.65;4.82;;;-3.90;99.90;;;;;;4186153;28;20218;-52
2021/03/06 07:29:24;;;;;;;9.93;4.40;;;-3.80;99.90;;;;;;4186672;28;20222;-52
2021/03/06 07:31:25;;;;;;;11.43;5.00;;;-3.70;99.90;;;;;;4185743;28;20292;-52
2021/03/06 07:33:27;;;;;;;12.73;5.22;;;-3.60;99.90;;;;;;4185964;28;20389;-52
2021/03/06 07:35:28;;;;;;;12.25;5.05;;;-3.40;99.90;;;;;;4186664;28;20300;-52
2021/03/06 07:37:30;;;;;;;11.27;5.07;;;-3.30;99.90;;;;;;4185829;28;20217;-52
2021/03/06 07:39:39;;;;;;;10.30;4.97;;;-3.20;99.90;;;;;;4185665;28;22053;-52
2021/03/06 07:41:48;;;;;;;12.82;5.28;;;-3.10;99.90;;;;;;4186093;28;20225;-52
2021/03/06 07:43:52;;;;;;;11.63;4.93;;;-3.00;99.90;;;;;;4186809;28;20222;-53
2021/03/06 07:45:54;;;;;;;13.27;5.10;;;-2.90;99.90;;;;;;4186821;28;20209;-52
2021/03/06 07:47:59;;;;;;;11.27;5.00;;;-2.90;99.90;;;;;;4186897;28;21078;-52
2021/03/06 07:50:03;;;;;;;9.93;4.72;;;-2.80;99.90;;;;;;4187439;28;20236;-53
2021/03/06 07:52:06;;;;;;;9.93;4.68;;;-2.70;99.90;;;;;;4185734;28;20634;-52
2021/03/06 07:54:07;;;;;;;9.70;4.70;;;-2.60;99.90;;;;;;4186597;28;20206;-53
2021/03/06 07:56:10;;;;;;;10.32;4.70;;;-2.60;99.90;;;;;;4186487;28;22113;-53
2021/03/06 07:58:12;;;;;;;9.43;4.18;;;-2.50;99.90;;;;;;4185981;28;20221;-53
2021/03/06 08:00:15;;;;;;;9.05;4.30;;;-2.40;99.90;;;;;;4185847;28;20474;-52
2021/03/06 08:02:37;;;;;;;12.40;4.60;;;-2.30;99.90;;;;;;4185970;28;20274;-52
2021/03/06 08:04:39;;;;;;;11.70;4.60;;;-2.20;99.90;;;;;;4186292;28;20226;-52
2021/03/06 08:06:41;;;;;;;7.85;4.78;;;-2.10;99.90;;;;;;4184860;28;20276;-53
2021/03/06 08:08:59;;;;;;;7.90;4.18;;;-2.00;99.90;;;;;;4185848;28;20214;-54
2021/03/06 08:11:08;;;;;;;8.80;4.03;;;-1.90;99.90;;;;;;4185298;28;20229;-52
2021/03/06 08:13:34;;;;;;;7.60;3.90;;;-1.80;99.90;;;;;;4185014;28;20656;-52
2021/03/06 08:15:36;;;;;;;9.15;3.97;;;-1.70;99.90;;;;;;4186015;28;20206;-53
2021/03/06 08:17:37;;;;;;;11.15;4.30;;;-1.70;99.90;;;;;;4184296;28;20274;-52
2021/03/06 08:19:43;;;;;;;6.65;3.90;;;-1.60;99.90;;;;;;4185581;28;20207;-51
2021/03/06 08:21:47;;;;;;;7.85;4.30;;;-1.60;99.90;;;;;;4185525;28;20215;-52
2021/03/06 08:23:48;;;;;;;8.40;4.13;;;-1.50;99.90;;;;;;4186022;28;20214;-52
2021/03/06 08:26:27;;;;;;;10.07;4.15;;;-1.50;99.90;;;;;;4184748;28;20213;-53
2021/03/06 08:28:29;;;;;;;8.63;4.03;;;-1.30;99.90;;;;;;4186185;28;20210;-52
2021/03/06 08:30:31;;;;;;;10.73;4.13;;;-1.20;99.90;;;;;;4185976;28;20229;-53
2021/03/06 08:32:39;;;;;;;7.57;4.20;;;-1.20;99.90;;;;;;4185584;28;20721;-52
2021/03/06 08:34:43;;;;;;;8.60;3.97;;;-1.10;99.90;;;;;;4185157;28;20212;-52
2021/03/06 08:36:45;;;;;;;7.50;3.78;;;-1.00;99.90;;;;;;4185589;28;20226;-52
2021/03/06 08:38:47;;;;;;;8.63;4.05;;;-1.00;99.90;;;;;;4185492;28;20809;-56
2021/03/06 08:40:52;;;;;;;10.32;4.43;;;-0.90;99.90;;;;;;4185786;28;20207;-53
2021/03/06 08:42:55;;;;;;;7.90;3.40;;;-0.80;99.90;;;;;;4185594;28;21117;-53
2021/03/06 08:44:58;;;;;;;8.43;3.97;;;-0.80;99.90;;;;;;4185019;28;20233;-53
2021/03/06 08:47:01;;;;;;;9.45;4.18;;;-0.80;99.90;;;;;;4185165;28;21001;-52
2021/03/06 08:49:02;;;;;;;8.97;4.33;;;-0.60;99.90;;;;;;4184836;28;20222;-54
2021/03/06 08:51:04;;;;;;;12.95;4.10;;;-0.60;99.90;;;;;;4185785;28;20491;-54
2021/03/06 08:53:07;;;;;;;9.00;4.13;;;-0.50;99.90;;;;;;4186096;28;20217;-51
2021/03/06 08:55:10;;;;;;;8.05;3.85;;;-0.40;99.90;;;;;;4185002;28;20268;-52
2021/03/06 08:57:31;;;;;;;9.00;3.73;;;-0.30;99.90;;;;;;4185408;28;20229;-52
2021/03/06 08:59:38;;;;;;;8.03;4.23;;;-0.30;99.90;;;;;;4184342;28;20494;-51
2021/03/06 09:01:40;;;;;;;10.03;4.13;;;-0.20;99.90;;;;;;4184684;28;20472;-51
2021/03/06 09:03:49;;;;;;;6.70;3.67;;;-0.10;99.90;;;;;;4184512;28;20482;-52
2021/03/06 09:05:51;;;;;;;11.23;4.03;;;-0.10;99.90;;;;;;4184292;28;20495;-52
2021/03/06 09:07:55;;;;;;;11.87;4.00;;;0.10;99.90;;;;;;4185021;28;22076;-52
2021/03/06 09:10:10;;;;;;;9.57;3.80;;;0.20;99.90;;;;;;4184721;28;20459;-52
2021/03/06 09:12:11;;;;;;;10.97;4.17;;;0.30;99.90;;;;;;4184421;28;20497;-53
2021/03/06 09:14:12;;;;;;;9.30;4.20;;;0.40;99.90;;;;;;4185216;28;20459;-52
2021/03/06 09:16:14;;;;;;;8.50;4.05;;;0.50;99.90;;;;;;4183891;28;20473;-53
2021/03/06 09:18:18;;;;;;;11.17;3.93;;;0.50;99.90;;;;;;4184483;28;20231;-53
2021/03/06 09:20:20;;;;;;;7.63;3.93;;;0.60;99.90;;;;;;4184729;28;20472;-53
2021/03/06 09:22:22;;;;;;;7.53;3.93;;;0.70;99.90;;;;;;4184337;28;20487;-53
2021/03/06 09:24:23;;;;;;;8.83;4.10;;;0.80;99.90;;;;;;4187873;28;20588;-53
2021/03/06 09:26:26;;;;;;;8.50;3.33;;;0.80;99.90;;;;;;4195897;28;20595;-53
2021/03/06 09:28:29;;;;;;;7.97;3.57;;;0.90;99.70;;;;;;4193387;28;20507;-53
2021/03/06 09:30:34;;;;;;;6.47;3.80;;;1.00;99.40;;;;;;4184501;28;20666;-53
2021/03/06 09:32:35;;;;;;;7.87;3.60;;;1.10;99.30;;;;;;4184473;28;20583;-53
2021/03/06 09:34:38;;;;;;;7.47;3.53;;;1.20;99.50;;;;;;4184483;28;20527;-53
2021/03/06 09:36:40;;;;;;;8.23;4.00;;;1.20;99.00;;;;;;4184621;28;20470;-53
2021/03/06 09:38:44;;;;;;;6.90;3.60;;;1.30;98.10;;;;;;4184063;28;20469;-53
2021/03/06 09:40:46;;;;;;;8.90;3.87;;;1.50;97.60;;;;;;4184688;28;20471;-53
2021/03/06 09:42:49;;;;;;;9.53;3.83;;;1.60;96.90;;;;;;4185031;28;20479;-54
2021/03/06 09:44:51;;;;;;;7.87;3.67;;;1.70;95.80;;;;;;4184525;28;20489;-53
2021/03/06 09:46:59;;;;;;;6.67;3.37;;;1.90;95.20;;;;;;4184129;28;20939;-53
2021/03/06 09:49:02;;;;;;;11.80;3.63;;;2.00;95.10;;;;;;4183901;28;20462;-53
2021/03/06 09:51:04;;;;;;;6.27;3.50;;;2.10;94.00;;;;;;4183386;28;21164;-53
2021/03/06 09:53:17;;;;;;;8.80;3.73;;;2.20;92.40;;;;;;4184360;28;21101;-54
2021/03/06 09:55:19;;;;;;;7.57;3.50;;;2.30;92.00;;;;;;4184937;28;20469;-53
2021/03/06 09:57:24;;;;;;;5.57;3.07;;;2.40;91.90;;;;;;4184189;28;20488;-53
2021/03/06 09:59:27;;;;;;;8.17;3.30;;;2.40;90.70;;;;;;4183829;28;20476;-53
2021/03/06 10:01:29;;;;;;;6.43;3.47;;;2.50;90.60;;;;;;4183608;28;20476;-54
2021/03/06 10:03:34;;;;;;;5.00;2.70;;;2.60;90.70;;;;;;4184318;28;20553;-53
2021/03/06 10:05:35;;;;;;;5.07;3.10;;;2.60;90.00;;;;;;4183929;28;20874;-53
2021/03/06 10:07:37;;;;;;;6.13;3.23;;;2.70;89.30;;;;;;4183573;28;20473;-53
2021/03/06 10:09:39;;;;;;;4.97;2.77;;;2.80;89.70;;;;;;4183733;28;20474;-53
2021/03/06 10:11:43;;;;;;;5.10;2.83;;;2.90;89.40;;;;;;4184736;28;20806;-53
2021/03/06 10:13:47;;;;;;;7.07;2.93;;;2.90;90.20;;;;;;4184561;28;20486;-53
2021/03/06 10:15:49;;;;;;;7.43;3.53;;;3.00;89.10;;;;;;4183663;28;20993;-53
2021/03/06 10:17:50;;;;;;;5.97;2.80;;;3.10;86.00;;;;;;4184799;28;20627;-53
2021/03/06 10:19:54;;;;;;;5.87;3.30;;;3.20;84.00;;;;;;4183911;28;20932;-53
2021/03/06 10:22:00;;;;;;;9.50;3.10;;;3.30;83.80;;;;;;4184469;28;20466;-53
2021/03/06 10:24:02;;;;;;;7.70;3.10;;;3.30;79.50;;;;;;4184025;28;21018;-53
2021/03/06 10:26:23;;;;;;;5.87;3.20;;;3.40;80.30;;;;;;4185092;28;20557;-53
2021/03/06 10:28:31;;;;;;;8.77;3.13;;;3.40;79.30;;;;;;4184376;28;20467;-53
2021/03/06 10:30:39;;;;;;;5.97;3.20;;;3.40;78.70;;;;;;4184167;28;20462;-54
2021/03/06 10:32:41;;;;;;;4.60;2.90;;;3.50;77.80;;;;;;4183461;28;20549;-54
2021/03/06 10:34:48;;;;;;;6.33;3.03;;;3.50;75.50;;;;;;4183378;28;20478;-54
2021/03/06 10:37:20;;;;;;;5.63;2.77;;;3.50;71.50;;;;;;4183961;28;20489;-54
2021/03/06 10:39:21;;;;;;;5.97;3.10;;;3.60;72.50;;;;;;4163729;28;20482;-54
2021/03/06 10:41:23;;;;;;;7.87;3.17;;;3.70;72.30;;;;;;4174545;28;20483;-54